createdAt,value
2022-12-22T00:00:18.093Z,10
2022-12-22T00:01:18.124Z,9.85714
2022-12-22T00:02:18.303Z,9.5
2022-12-22T00:03:18.539Z,9.71429
2022-12-22T00:04:18.404Z,9.35714
2022-12-22T00:05:18.248Z,8.64286
2022-12-22T00:06:18.300Z,8.42857
2022-12-22T00:07:18.314Z,8.42857
2022-12-22T00:08:18.350Z,8.35714
2022-12-22T00:09:18.392Z,8
2022-12-22T00:10:18.424Z,8.92857
2022-12-22T00:11:18.462Z,9.42857
2022-12-22T00:12:18.483Z,9.85714
2022-12-22T00:13:18.517Z,8.85714
2022-12-22T00:14:18.593Z,9.71429
2022-12-22T00:15:18.616Z,8.92857
2022-12-22T00:16:18.656Z,8.92857
2022-12-22T00:17:18.672Z,9.85714
2022-12-22T00:18:18.704Z,9.85714
2022-12-22T00:19:18.743Z,9.14286
2022-12-22T00:20:18.934Z,9.42857
2022-12-22T00:21:18.799Z,8.71429
2022-12-22T00:22:18.839Z,8.92857
2022-12-22T00:23:18.879Z,9.21429
2022-12-22T00:24:18.923Z,8.92857
2022-12-22T00:25:18.944Z,8.92857
2022-12-22T00:26:18.976Z,9.21429
2022-12-22T00:27:19.017Z,9.85714
2022-12-22T00:28:19.058Z,9.71429
2022-12-22T00:29:19.096Z,10.3571
2022-12-22T00:30:19.129Z,10.4286
2022-12-22T00:31:19.224Z,11.8571
2022-12-22T00:32:19.195Z,11.8571
2022-12-22T00:33:19.249Z,11.2143
2022-12-22T00:34:19.271Z,11
2022-12-22T00:35:19.301Z,11.5
2022-12-22T00:36:19.344Z,11.4286
2022-12-22T00:37:19.375Z,9.92857
2022-12-22T00:38:19.418Z,10.8571
2022-12-22T00:39:19.452Z,10.9286
2022-12-22T00:40:19.484Z,9.85714
2022-12-22T00:41:19.515Z,9.92857
2022-12-22T00:42:19.558Z,10.6429
2022-12-22T00:43:19.591Z,10.3571
2022-12-22T00:44:19.625Z,9.64286
2022-12-22T00:45:19.668Z,10.6429
2022-12-22T00:46:19.752Z,10
2022-12-22T00:47:19.733Z,9.5
2022-12-22T00:48:19.771Z,9.92857
2022-12-22T00:49:19.810Z,9.85714
2022-12-22T00:50:19.842Z,10.1429
2022-12-22T00:51:19.866Z,10.4286
2022-12-22T00:52:19.909Z,10.2143
2022-12-22T00:53:19.937Z,9.21429
2022-12-22T00:54:19.973Z,9
2022-12-22T00:55:20.020Z,9
2022-12-22T00:56:20.052Z,9.42857
2022-12-22T00:57:20.097Z,9.14286
2022-12-22T00:58:20.121Z,8.92857
2022-12-22T00:59:20.158Z,9.14286
2022-12-22T01:00:20.197Z,8.71429
2022-12-22T01:01:20.324Z,8.64286
2022-12-22T01:02:20.464Z,8.85714
2022-12-22T01:03:20.389Z,9.5
2022-12-22T01:04:20.353Z,10
2022-12-22T01:05:20.375Z,10.1429
2022-12-22T01:06:20.422Z,9.92857
2022-12-22T01:07:20.457Z,8.64286
2022-12-22T01:08:20.494Z,9.42857
2022-12-22T01:09:20.526Z,9.35714
2022-12-22T01:10:20.568Z,9
2022-12-22T01:11:20.648Z,9.42857
2022-12-22T01:12:20.646Z,8.64286
2022-12-22T01:13:20.685Z,8.5
2022-12-22T01:14:20.715Z,9.14286
2022-12-22T01:15:20.749Z,8.85714
2022-12-22T01:16:20.910Z,8.42857
2022-12-22T01:17:20.839Z,9.85714
2022-12-22T01:18:20.843Z,8.92857
2022-12-22T01:19:21.887Z,9.92857
2022-12-22T01:20:20.913Z,9.71429
2022-12-22T01:21:20.947Z,9.64286
2022-12-22T01:22:20.991Z,10.3571
2022-12-22T01:23:21.021Z,10.9286
2022-12-22T01:24:21.065Z,10
2022-12-22T01:25:21.099Z,10
2022-12-22T01:26:21.121Z,10.3571
2022-12-22T01:27:21.182Z,10.8571
2022-12-22T01:28:21.203Z,10.6429
2022-12-22T01:29:21.236Z,11
2022-12-22T01:30:21.266Z,10.8571
2022-12-22T01:31:21.348Z,11
2022-12-22T01:32:21.344Z,11
2022-12-22T01:33:21.383Z,12.3571
2022-12-22T01:34:21.401Z,11.4286
2022-12-22T01:35:21.430Z,10.1429
2022-12-22T01:36:21.460Z,10
2022-12-22T01:37:21.508Z,10.9286
2022-12-22T01:38:21.538Z,10.4286
2022-12-22T01:39:21.566Z,10.1429
2022-12-22T01:40:21.602Z,9.92857
2022-12-22T01:41:21.637Z,9.14286
2022-12-22T01:42:21.666Z,10
2022-12-22T01:43:21.701Z,9.71429
2022-12-22T01:44:21.745Z,11
2022-12-22T01:45:21.772Z,11.4286
2022-12-22T01:46:21.842Z,11.3571
2022-12-22T01:47:21.847Z,11.8571
2022-12-22T01:48:21.885Z,11.5
2022-12-22T01:49:21.949Z,12
2022-12-22T01:50:21.959Z,11
2022-12-22T01:51:22.002Z,10.5
2022-12-22T01:52:22.043Z,10.7143
2022-12-22T01:53:22.067Z,11
2022-12-22T01:54:22.102Z,12
2022-12-22T01:55:22.139Z,12.1429
2022-12-22T01:56:22.168Z,12.6429
2022-12-22T01:57:22.194Z,12.7143
2022-12-22T01:58:22.236Z,12.5
2022-12-22T01:59:22.332Z,12.3571
2022-12-22T02:00:22.296Z,12.9286
2022-12-22T02:01:22.387Z,12.1429
2022-12-22T02:02:22.455Z,13.4286
2022-12-22T02:03:22.527Z,13.5
2022-12-22T02:04:22.430Z,14.7143
2022-12-22T02:05:22.456Z,13.9286
2022-12-22T02:06:22.495Z,13.4286
2022-12-22T02:07:22.566Z,14.3571
2022-12-22T02:08:22.558Z,13.7143
2022-12-22T02:09:22.595Z,13.4286
2022-12-22T02:10:22.631Z,13.4286
2022-12-22T02:11:22.658Z,13.1429
2022-12-22T02:12:22.686Z,14.2143
2022-12-22T02:13:22.727Z,13.6429
2022-12-22T02:14:29.441Z,13.6429
2022-12-22T02:15:22.793Z,13.5
2022-12-22T02:16:22.839Z,12.6429
2022-12-22T02:17:22.865Z,12.8571
2022-12-22T02:18:22.893Z,13.2143
2022-12-22T02:19:22.923Z,13.3571
2022-12-22T02:20:22.956Z,13
2022-12-22T02:21:23.005Z,13.6429
2022-12-22T02:22:23.032Z,12.3571
2022-12-22T02:23:23.062Z,12.9286
2022-12-22T02:24:23.124Z,12.1429
2022-12-22T02:25:23.136Z,12.7143
2022-12-22T02:26:23.166Z,12.8571
2022-12-22T02:27:23.211Z,13
2022-12-22T02:28:23.238Z,12.6429
2022-12-22T02:29:23.272Z,11.9286
2022-12-22T02:30:23.314Z,12.7143
2022-12-22T02:31:23.366Z,12.3571
2022-12-22T02:32:23.384Z,12.3571
2022-12-22T02:33:23.418Z,12.5
2022-12-22T02:34:23.463Z,12.6429
2022-12-22T02:35:23.510Z,12
2022-12-22T02:36:23.585Z,12.1429
2022-12-22T02:37:23.566Z,11.6429
2022-12-22T02:38:23.611Z,11.8571
2022-12-22T02:39:23.620Z,12.1429
2022-12-22T02:40:23.654Z,11.8571
2022-12-22T02:41:23.683Z,12.1429
2022-12-22T02:42:23.724Z,11.5
2022-12-22T02:43:23.763Z,11.4286
2022-12-22T02:44:23.801Z,12.7143
2022-12-22T02:45:23.841Z,11.9286
2022-12-22T02:46:23.946Z,11.2143
2022-12-22T02:47:23.911Z,11.4286
2022-12-22T02:48:23.958Z,11.4286
2022-12-22T02:49:23.988Z,11.1429
2022-12-22T02:50:24.018Z,10.8571
2022-12-22T02:51:24.059Z,10.7143
2022-12-22T02:52:24.083Z,10.6429
2022-12-22T02:53:24.128Z,11.3571
2022-12-22T02:54:24.148Z,10.6429
2022-12-22T02:55:24.186Z,11.1429
2022-12-22T02:56:24.235Z,10.2143
2022-12-22T02:57:24.262Z,11.1429
2022-12-22T02:58:24.308Z,10.8571
2022-12-22T02:59:24.351Z,10.6429
2022-12-22T03:00:24.394Z,11.1429
2022-12-22T03:01:24.565Z,10.4286
2022-12-22T03:02:24.597Z,10.1429
2022-12-22T03:03:24.697Z,10.3571
2022-12-22T03:04:24.504Z,9.42857
2022-12-22T03:05:24.571Z,9.5
2022-12-22T03:06:24.579Z,9.85714
2022-12-22T03:07:24.612Z,10
2022-12-22T03:08:24.656Z,11.1429
2022-12-22T03:09:24.695Z,11.1429
2022-12-22T03:10:24.723Z,11.3571
2022-12-22T03:11:24.763Z,10.8571
2022-12-22T03:12:24.792Z,10.7143
2022-12-22T03:13:24.833Z,10.6429
2022-12-22T03:14:24.876Z,11.3571
2022-12-22T03:15:24.893Z,10.4286
2022-12-22T03:16:25.084Z,10.4286
2022-12-22T03:17:24.963Z,11.2143
2022-12-22T03:18:24.987Z,10.9286
2022-12-22T03:19:25.018Z,10.7143
2022-12-22T03:20:25.051Z,11.6429
2022-12-22T03:21:25.082Z,10.8571
2022-12-22T03:22:25.146Z,11.2143
2022-12-22T03:23:25.154Z,11.3571
2022-12-22T03:24:25.183Z,10.4286
2022-12-22T03:25:25.231Z,11.3571
2022-12-22T03:26:25.264Z,11
2022-12-22T03:27:25.312Z,10.8571
2022-12-22T03:28:25.341Z,10.3571
2022-12-22T03:29:25.371Z,10.9286
2022-12-22T03:30:25.411Z,11.5
2022-12-22T03:31:25.462Z,10.2143
2022-12-22T03:32:25.469Z,10.7143
2022-12-22T03:33:25.522Z,9.85714
2022-12-22T03:34:25.540Z,11.1429
2022-12-22T03:35:25.572Z,10.2143
2022-12-22T03:36:25.613Z,10.6429
2022-12-22T03:37:25.653Z,9.92857
2022-12-22T03:38:25.681Z,10.9286
2022-12-22T03:39:25.731Z,10.1429
2022-12-22T03:40:25.751Z,10.7143
2022-12-22T03:41:25.783Z,10.1429
2022-12-22T03:42:25.820Z,10.1429
2022-12-22T03:43:25.871Z,10.4286
2022-12-22T03:44:25.902Z,10.5
2022-12-22T03:45:25.935Z,10.3571
2022-12-22T03:46:25.981Z,10.1429
2022-12-22T03:47:26.011Z,10.6429
2022-12-22T03:48:26.039Z,10
2022-12-22T03:49:26.084Z,10.2143
2022-12-22T03:50:26.128Z,10.6429
2022-12-22T03:51:26.156Z,9.92857
2022-12-22T03:52:26.191Z,10.2143
2022-12-22T03:53:26.220Z,10.2143
2022-12-22T03:54:26.259Z,10.2143
2022-12-22T03:55:26.284Z,10.4286
2022-12-22T03:56:26.321Z,10.6429
2022-12-22T03:57:26.359Z,10.4286
2022-12-22T03:58:26.388Z,9.92857
2022-12-22T03:59:26.435Z,10.4286
2022-12-22T04:00:26.452Z,10.1429
2022-12-22T04:01:26.595Z,9.71429
2022-12-22T04:02:26.666Z,10.4286
2022-12-22T04:03:26.571Z,10
2022-12-22T04:04:26.577Z,10.3571
2022-12-22T04:05:26.627Z,10.8571
2022-12-22T04:06:26.650Z,10.4286
2022-12-22T04:07:26.684Z,10.9286
2022-12-22T04:08:26.723Z,9.85714
2022-12-22T04:09:26.767Z,9.14286
2022-12-22T04:10:26.795Z,10.2143
2022-12-22T04:11:26.835Z,9.92857
2022-12-22T04:12:26.876Z,9.92857
2022-12-22T04:13:26.907Z,9.71429
2022-12-22T04:14:33.389Z,10
2022-12-22T04:15:26.978Z,10.1429
2022-12-22T04:16:27.068Z,9.92857
2022-12-22T04:17:27.057Z,9.5
2022-12-22T04:18:27.094Z,10.4286
2022-12-22T04:19:27.120Z,9.64286
2022-12-22T04:20:27.161Z,9.71429
2022-12-22T04:21:27.205Z,10
2022-12-22T04:22:27.232Z,10
2022-12-22T04:23:27.271Z,10.2143
2022-12-22T04:24:27.307Z,9.92857
2022-12-22T04:25:27.346Z,9.21429
2022-12-22T04:26:27.372Z,9.85714
2022-12-22T04:27:27.414Z,9.85714
2022-12-22T04:28:27.465Z,9.5
2022-12-22T04:29:27.484Z,10
2022-12-22T04:30:27.533Z,9.35714
2022-12-22T04:31:27.573Z,10.6429
2022-12-22T04:32:27.604Z,9.92857
2022-12-22T04:33:27.622Z,10.2143
2022-12-22T04:34:27.655Z,9.92857
2022-12-22T04:35:27.689Z,9
2022-12-22T04:36:27.720Z,11
2022-12-22T04:37:27.774Z,9.92857
2022-12-22T04:38:27.787Z,9.92857
2022-12-22T04:39:27.830Z,9.71429
2022-12-22T04:40:27.866Z,10.1429
2022-12-22T04:41:27.882Z,10
2022-12-22T04:42:27.931Z,10
2022-12-22T04:43:27.974Z,9.71429
2022-12-22T04:44:27.998Z,10.1429
2022-12-22T04:45:28.064Z,10.1429
2022-12-22T04:46:28.199Z,10.3571
2022-12-22T04:47:28.117Z,10.1429
2022-12-22T04:48:28.160Z,10.4286
2022-12-22T04:49:28.182Z,9.71429
2022-12-22T04:50:28.221Z,10.5
2022-12-22T04:51:28.266Z,10.4286
2022-12-22T04:52:28.304Z,10.4286
2022-12-22T04:53:28.356Z,10.9286
2022-12-22T04:54:28.358Z,10.1429
2022-12-22T04:55:28.403Z,10.7143
2022-12-22T04:56:28.434Z,10.7143
2022-12-22T04:57:28.487Z,10.5
2022-12-22T04:58:28.507Z,11.3571
2022-12-22T04:59:28.531Z,11.1429
2022-12-22T05:00:28.560Z,10.9286
2022-12-22T05:01:28.715Z,11.4286
2022-12-22T05:02:28.745Z,11
2022-12-22T05:03:28.776Z,11.4286
2022-12-22T05:04:28.717Z,11.4286
2022-12-22T05:05:28.731Z,11.7143
2022-12-22T05:06:28.767Z,11.9286
2022-12-22T05:07:28.799Z,12.2143
2022-12-22T05:08:28.844Z,11.8571
2022-12-22T05:09:28.881Z,12.5
2022-12-22T05:10:28.901Z,11.8571
2022-12-22T05:11:28.945Z,12
2022-12-22T05:12:28.962Z,11.9286
2022-12-22T05:13:28.993Z,11.8571
2022-12-22T05:14:29.022Z,11.8571
2022-12-22T05:15:29.062Z,11.8571
2022-12-22T05:16:29.162Z,12.2143
2022-12-22T05:17:29.152Z,13.4286
2022-12-22T05:18:29.170Z,12.4286
2022-12-22T05:19:30.909Z,12.2143
2022-12-22T05:20:29.242Z,12.8571
2022-12-22T05:21:29.270Z,13.5
2022-12-22T05:22:29.320Z,12.6429
2022-12-22T05:23:29.344Z,12.7143
2022-12-22T05:24:29.378Z,13.1429
2022-12-22T05:25:34.708Z,12.7143
2022-12-22T05:26:29.495Z,13.1429
2022-12-22T05:27:29.471Z,12.5
2022-12-22T05:28:29.502Z,13.1429
2022-12-22T05:29:29.536Z,13
2022-12-22T05:30:29.660Z,12.8571
2022-12-22T05:31:29.688Z,12.5
2022-12-22T05:32:29.649Z,13.1429
2022-12-22T05:33:29.676Z,13.2143
2022-12-22T05:34:29.717Z,13.4286
2022-12-22T05:35:29.745Z,13
2022-12-22T05:36:29.782Z,12.9286
2022-12-22T05:37:29.827Z,13.5
2022-12-22T05:38:29.850Z,13
2022-12-22T05:39:29.884Z,12.6429
2022-12-22T05:40:29.914Z,12.9286
2022-12-22T05:41:29.946Z,13.4286
2022-12-22T05:42:29.976Z,12.5
2022-12-22T05:43:30.028Z,13
2022-12-22T05:44:30.047Z,13.4286
2022-12-22T05:45:30.084Z,12.7143
2022-12-22T05:46:30.163Z,13.2143
2022-12-22T05:47:30.157Z,13.1429
2022-12-22T05:48:36.947Z,12.5
2022-12-22T05:49:30.233Z,12.6429
2022-12-22T05:50:30.257Z,12.5
2022-12-22T05:51:30.300Z,12.8571
2022-12-22T05:52:30.326Z,12.5
2022-12-22T05:53:30.370Z,13.5
2022-12-22T05:54:30.407Z,12.5
2022-12-22T05:55:30.437Z,12.7143
2022-12-22T05:56:30.475Z,12.5
2022-12-22T05:57:30.513Z,12.7143
2022-12-22T05:58:30.556Z,12.6429
2022-12-22T05:59:30.597Z,13.1429
2022-12-22T06:00:30.636Z,12.1429
2022-12-22T06:01:30.695Z,11.9286
2022-12-22T06:02:30.890Z,12.4286
2022-12-22T06:03:30.917Z,12.4286
2022-12-22T06:04:30.934Z,13
2022-12-22T06:05:30.824Z,13.2143
2022-12-22T06:06:30.863Z,13.1429
2022-12-22T06:07:30.889Z,13.1429
2022-12-22T06:08:30.922Z,12.7143
2022-12-22T06:09:30.975Z,12.5
2022-12-22T06:10:30.990Z,12.9286
2022-12-22T06:11:31.014Z,12.8571
2022-12-22T06:12:31.055Z,12.7143
2022-12-22T06:13:31.100Z,13.2143
2022-12-22T06:14:31.127Z,12.2143
2022-12-22T06:15:31.160Z,13.2143
2022-12-22T06:16:31.353Z,13.6429
2022-12-22T06:17:31.221Z,12.8571
2022-12-22T06:18:31.287Z,12.5
2022-12-22T06:19:31.299Z,13.5
2022-12-22T06:20:31.350Z,13.1429
2022-12-22T06:21:31.386Z,12.5
2022-12-22T06:22:31.407Z,12.6429
2022-12-22T06:23:31.441Z,12
2022-12-22T06:24:31.483Z,13.5
2022-12-22T06:25:31.511Z,11.6429
2022-12-22T06:26:31.561Z,13
2022-12-22T06:27:31.583Z,13.4286
2022-12-22T06:28:31.618Z,12.4286
2022-12-22T06:29:31.655Z,12.5
2022-12-22T06:30:33.888Z,12.8571
2022-12-22T06:31:31.878Z,12.2143
2022-12-22T06:32:31.779Z,12.2143
2022-12-22T06:33:31.792Z,12.6429
2022-12-22T06:34:31.817Z,12.7143
2022-12-22T06:35:31.864Z,12.5
2022-12-22T06:36:31.899Z,13.3571
2022-12-22T06:37:31.946Z,12.7143
2022-12-22T06:38:31.953Z,13
2022-12-22T06:39:31.999Z,13.1429
2022-12-22T06:40:32.037Z,12.9286
2022-12-22T06:41:32.069Z,13
2022-12-22T06:42:32.119Z,12.8571
2022-12-22T06:43:32.139Z,13.4286
2022-12-22T06:44:32.167Z,12.4286
2022-12-22T06:45:32.202Z,12.5
2022-12-22T06:46:32.279Z,12.1429
2022-12-22T06:47:32.273Z,13.2143
2022-12-22T06:48:32.327Z,13.9286
2022-12-22T06:49:32.341Z,12.7143
2022-12-22T06:50:32.381Z,13.4286
2022-12-22T06:51:32.404Z,12.9286
2022-12-22T06:52:32.441Z,12.4286
2022-12-22T06:53:32.508Z,12.5
2022-12-22T06:54:32.519Z,12.8571
2022-12-22T06:55:32.544Z,12.9286
2022-12-22T06:56:32.591Z,12.9286
2022-12-22T06:57:32.611Z,12.9286
2022-12-22T06:58:32.657Z,12.4286
2022-12-22T06:59:32.682Z,13.1429
2022-12-22T07:00:32.723Z,12.3571
2022-12-22T07:01:32.947Z,12.3571
2022-12-22T07:02:33.041Z,12.7143
2022-12-22T07:03:32.899Z,13
2022-12-22T07:04:32.856Z,12.4286
2022-12-22T07:05:32.900Z,12.8571
2022-12-22T07:06:32.926Z,12.6429
2022-12-22T07:07:32.984Z,12.7143
2022-12-22T07:08:33.000Z,13.5
2022-12-22T07:09:33.021Z,13.3571
2022-12-22T07:10:33.067Z,11.8571
2022-12-22T07:11:33.116Z,12.7143
2022-12-22T07:12:33.137Z,12.8571
2022-12-22T07:13:33.192Z,13
2022-12-22T07:14:33.209Z,13
2022-12-22T07:15:33.289Z,13.4286
2022-12-22T07:16:33.355Z,13.1429
2022-12-22T07:17:33.310Z,12.2143
2022-12-22T07:18:33.345Z,12.7143
2022-12-22T07:19:33.374Z,12.8571
2022-12-22T07:20:33.416Z,12.8571
2022-12-22T07:21:33.449Z,12.2143
2022-12-22T07:22:33.489Z,12.6429
2022-12-22T07:23:33.502Z,13
2022-12-22T07:24:33.539Z,13
2022-12-22T07:25:33.572Z,12.6429
2022-12-22T07:26:33.608Z,13
2022-12-22T07:27:33.644Z,12.8571
2022-12-22T07:28:33.684Z,13.6429
2022-12-22T07:29:33.706Z,12.3571
2022-12-22T07:30:33.737Z,12.1429
2022-12-22T07:31:33.884Z,11.8571
2022-12-22T07:32:33.798Z,12.6429
2022-12-22T07:33:33.849Z,12.7143
2022-12-22T07:34:33.871Z,12.1429
2022-12-22T07:35:33.907Z,12.7143
2022-12-22T07:36:33.935Z,12.1429
2022-12-22T07:37:33.970Z,12.7143
2022-12-22T07:38:34.006Z,12.5
2022-12-22T07:39:34.041Z,12.4286
2022-12-22T07:40:39.438Z,12
2022-12-22T07:41:34.124Z,13.1429
2022-12-22T07:42:34.143Z,12
2022-12-22T07:43:34.193Z,12.5
2022-12-22T07:44:34.208Z,12.4286
2022-12-22T07:45:34.246Z,11.3571
2022-12-22T07:46:34.391Z,11.9286
2022-12-22T07:47:35.706Z,13
2022-12-22T07:48:34.359Z,11.9286
2022-12-22T07:49:34.378Z,12
2022-12-22T07:50:34.424Z,12
2022-12-22T07:51:34.465Z,12.2143
2022-12-22T07:52:34.516Z,12.5
2022-12-22T07:53:34.533Z,12.6429
2022-12-22T07:54:41.163Z,12.8571
2022-12-22T07:55:34.593Z,12.6429
2022-12-22T07:56:34.632Z,12.1429
2022-12-22T07:57:34.661Z,12.7143
2022-12-22T07:58:34.711Z,12.2143
2022-12-22T07:59:34.731Z,12.9286
2022-12-22T08:00:34.760Z,12.4286
2022-12-22T08:01:34.930Z,11.7143
2022-12-22T08:02:38.748Z,12.2143
2022-12-22T08:03:34.882Z,12.5
2022-12-22T08:04:34.980Z,12.2143
2022-12-22T08:05:34.937Z,12.1429
2022-12-22T08:06:34.978Z,13.4286
2022-12-22T08:07:34.996Z,12.7143
2022-12-22T08:08:35.019Z,12.1429
2022-12-22T08:09:35.064Z,12.5
2022-12-22T08:10:35.083Z,12.7143
2022-12-22T08:11:35.125Z,12.9286
2022-12-22T08:12:35.207Z,12.8571
2022-12-22T08:13:35.186Z,12.4286
2022-12-22T08:14:35.229Z,12.4286
2022-12-22T08:15:35.272Z,12.7143
2022-12-22T08:16:35.349Z,12.2143
2022-12-22T08:17:35.321Z,12.6429
2022-12-22T08:18:35.369Z,12.5
2022-12-22T08:19:35.410Z,12
2022-12-22T08:20:35.452Z,12.3571
2022-12-22T08:21:35.475Z,12.3571
2022-12-22T08:22:35.598Z,12.4286
2022-12-22T08:23:35.593Z,12
2022-12-22T08:24:35.582Z,12.5
2022-12-22T08:25:35.622Z,12.2143
2022-12-22T08:26:35.636Z,11.8571
2022-12-22T08:27:35.675Z,11.5
2022-12-22T08:28:35.715Z,12.7143
2022-12-22T08:29:35.772Z,11.8571
2022-12-22T08:30:35.800Z,12.1429
2022-12-22T08:31:35.873Z,11.6429
2022-12-22T08:32:35.849Z,12.3571
2022-12-22T08:33:35.881Z,12.7143
2022-12-22T08:34:35.916Z,12.4286
2022-12-22T08:35:35.960Z,13.7143
2022-12-22T08:36:35.995Z,13.1429
2022-12-22T08:37:36.016Z,12.4286
2022-12-22T08:38:36.058Z,12.6429
2022-12-22T08:39:36.100Z,12.7143
2022-12-22T08:40:36.169Z,13.4286
2022-12-22T08:41:36.159Z,13.9286
2022-12-22T08:42:36.190Z,12.4286
2022-12-22T08:43:36.223Z,11.8571
2022-12-22T08:44:36.256Z,12.5
2022-12-22T08:45:36.297Z,12.2143
2022-12-22T08:46:36.387Z,12.9286
2022-12-22T08:47:36.508Z,11.5
2022-12-22T08:48:36.390Z,12
2022-12-22T08:49:36.431Z,12.8571
2022-12-22T08:50:36.455Z,13
2022-12-22T08:51:36.493Z,11.8571
2022-12-22T08:52:36.527Z,13
2022-12-22T08:54:03.921Z,12.1429
2022-12-22T08:54:36.597Z,11.1429
2022-12-22T08:55:36.624Z,12.7143
2022-12-22T08:56:36.658Z,12.1429
2022-12-22T08:57:36.692Z,12.1429
2022-12-22T08:58:36.726Z,12.3571
2022-12-22T08:59:36.763Z,12.1429
2022-12-22T09:00:36.871Z,12.4286
2022-12-22T09:01:37.011Z,11.8571
2022-12-22T09:02:37.098Z,12
2022-12-22T09:03:36.900Z,12.2143
2022-12-22T09:04:36.936Z,12.2143
2022-12-22T09:05:36.950Z,12.4286
2022-12-22T09:06:41.191Z,12.4286
2022-12-22T09:07:37.021Z,12.3571
2022-12-22T09:08:37.097Z,11.8571
2022-12-22T09:09:37.077Z,11.8571
2022-12-22T09:10:37.107Z,12
2022-12-22T09:11:37.161Z,12.3571
2022-12-22T09:12:37.185Z,11.3571
2022-12-22T09:13:37.215Z,11
2022-12-22T09:14:37.242Z,11.1429
2022-12-22T09:15:37.270Z,11.2143
2022-12-22T09:16:37.367Z,11.3571
2022-12-22T09:17:37.343Z,11.4286
2022-12-22T09:18:37.385Z,10.8571
2022-12-22T09:19:37.414Z,10.6429
2022-12-22T09:20:37.473Z,10.2143
2022-12-22T09:21:37.482Z,10.4286
2022-12-22T09:22:37.522Z,10.9286
2022-12-22T09:23:37.552Z,10.8571
2022-12-22T09:24:37.610Z,10.3571
2022-12-22T09:25:37.623Z,9.92857
2022-12-22T09:26:37.678Z,10.2143
2022-12-22T09:27:37.694Z,10
2022-12-22T09:28:37.718Z,10.3571
2022-12-22T09:29:37.766Z,10.1429
2022-12-22T09:30:37.792Z,10.3571
2022-12-22T09:31:37.867Z,10.1429
2022-12-22T09:32:37.873Z,9.85714
2022-12-22T09:33:37.895Z,10.2143
2022-12-22T09:34:37.936Z,9.42857
2022-12-22T09:35:37.985Z,10.2143
2022-12-22T09:36:38.003Z,9.5
2022-12-22T09:37:38.036Z,9.71429
2022-12-22T09:38:38.072Z,9.85714
2022-12-22T09:39:38.135Z,9.5
2022-12-22T09:40:38.140Z,9.85714
2022-12-22T09:41:38.180Z,9.35714
2022-12-22T09:42:38.226Z,10
2022-12-22T09:43:38.248Z,10
2022-12-22T09:44:38.271Z,9
2022-12-22T09:45:38.328Z,9.35714
2022-12-22T09:46:38.351Z,9.21429
2022-12-22T09:47:38.386Z,8.92857
2022-12-22T09:48:38.403Z,9.42857
2022-12-22T09:49:38.432Z,8.92857
2022-12-22T09:50:38.470Z,10.1429
2022-12-22T09:51:38.501Z,9.71429
2022-12-22T09:52:38.526Z,9.5
2022-12-22T09:53:38.572Z,9
2022-12-22T09:54:38.620Z,9.35714
2022-12-22T09:55:38.646Z,9.35714
2022-12-22T09:56:38.677Z,8.92857
2022-12-22T09:57:38.709Z,8.85714
2022-12-22T09:58:38.745Z,8.71429
2022-12-22T09:59:38.797Z,9.21429
2022-12-22T10:00:38.815Z,8.71429
2022-12-22T10:01:38.958Z,9.21429
2022-12-22T10:02:39.011Z,8.64286
2022-12-22T10:03:38.937Z,9.14286
2022-12-22T10:04:38.960Z,9
2022-12-22T10:05:38.985Z,9.14286
2022-12-22T10:06:39.026Z,8.64286
2022-12-22T10:07:39.051Z,9
2022-12-22T10:08:39.075Z,8.64286
2022-12-22T10:09:50.365Z,8.64286
2022-12-22T10:10:39.145Z,8.14286
2022-12-22T10:11:39.172Z,9
2022-12-22T10:12:39.213Z,9.64286
2022-12-22T10:13:39.247Z,8.92857
2022-12-22T10:14:39.275Z,8.42857
2022-12-22T10:15:39.330Z,8.21429
2022-12-22T10:16:39.463Z,8.5
2022-12-22T10:17:39.388Z,9
2022-12-22T10:18:39.446Z,8.71429
2022-12-22T10:19:39.473Z,8.71429
2022-12-22T10:20:39.494Z,8.71429
2022-12-22T10:21:44.657Z,8.71429
2022-12-22T10:22:39.560Z,8.64286
2022-12-22T10:23:39.593Z,8.64286
2022-12-22T10:24:39.631Z,8.92857
2022-12-22T10:26:26.296Z,8.71429
2022-12-22T10:26:39.688Z,8.5
2022-12-22T10:27:44.233Z,8.71429
2022-12-22T10:28:39.756Z,8.64286
2022-12-22T10:29:39.791Z,8.71429
2022-12-22T10:30:39.829Z,8.14286
2022-12-22T10:31:39.966Z,8.35714
2022-12-22T10:32:39.901Z,8.14286
2022-12-22T10:33:44.042Z,8.71429
2022-12-22T10:34:39.963Z,8.71429
2022-12-22T10:35:39.993Z,8.14286
2022-12-22T10:36:40.024Z,8.64286
2022-12-22T10:37:40.058Z,8.14286
2022-12-22T10:38:40.133Z,8.71429
2022-12-22T10:39:40.136Z,8.5
2022-12-22T10:40:40.152Z,8.5
2022-12-22T10:41:40.197Z,8.14286
2022-12-22T10:42:40.238Z,8.85714
2022-12-22T10:43:40.269Z,8.5
2022-12-22T10:44:40.295Z,8.5
2022-12-22T10:45:40.354Z,8.21429
2022-12-22T10:46:40.364Z,8.42857
2022-12-22T10:47:40.402Z,8.71429
2022-12-22T10:48:40.435Z,8
2022-12-22T10:50:40.508Z,8.35714
2022-12-22T10:51:40.549Z,7.92857
2022-12-22T10:52:40.589Z,8.5
2022-12-22T10:53:40.620Z,8.64286
2022-12-22T10:54:40.656Z,8.35714
2022-12-22T10:55:40.678Z,8.71429
2022-12-22T10:56:40.717Z,9
2022-12-22T10:57:40.756Z,8.71429
2022-12-22T10:58:40.784Z,8.5
2022-12-22T10:59:40.813Z,9
2022-12-22T11:00:40.888Z,8.71429
2022-12-22T11:01:40.973Z,8.42857
2022-12-22T11:02:41.000Z,8.21429
2022-12-22T11:03:41.047Z,8.14286
2022-12-22T11:04:41.019Z,8.42857
2022-12-22T11:05:41.006Z,8.35714
2022-12-22T11:06:41.047Z,8.5
2022-12-22T11:07:41.082Z,8.5
2022-12-22T11:08:44.848Z,8.71429
2022-12-22T11:09:41.147Z,8.35714
2022-12-22T11:10:41.178Z,8.21429
2022-12-22T11:11:41.204Z,8.42857
2022-12-22T11:12:41.247Z,8.5
2022-12-22T11:13:41.272Z,8.35714
2022-12-22T11:14:41.328Z,8.92857
2022-12-22T11:15:41.355Z,7.71429
2022-12-22T11:16:41.455Z,8.14286
2022-12-22T11:17:41.417Z,8.14286
2022-12-22T11:18:41.445Z,8.64286
2022-12-22T11:19:41.490Z,8.64286
2022-12-22T11:20:41.517Z,8.42857
2022-12-22T11:21:41.547Z,8.21429
2022-12-22T11:22:41.596Z,8.64286
2022-12-22T11:23:41.605Z,7.85714
2022-12-22T11:24:41.649Z,7.92857
2022-12-22T11:25:41.670Z,8.5
2022-12-22T11:26:41.696Z,8.5
2022-12-22T11:27:45.990Z,8.64286
2022-12-22T11:28:41.756Z,8
2022-12-22T11:29:41.789Z,8.42857
2022-12-22T11:30:41.914Z,8.21429
2022-12-22T11:31:41.870Z,8.21429
2022-12-22T11:32:41.904Z,7.64286
2022-12-22T11:33:41.955Z,8.21429
2022-12-22T11:34:41.988Z,7.85714
2022-12-22T11:35:42.013Z,8.14286
2022-12-22T11:36:42.052Z,7.85714
2022-12-22T11:37:42.083Z,7.71429
2022-12-22T11:38:42.131Z,8
2022-12-22T11:39:42.166Z,8.42857
2022-12-22T11:40:42.215Z,7.92857
2022-12-22T11:41:42.240Z,7.92857
2022-12-22T11:42:42.260Z,7.5
2022-12-22T11:43:42.315Z,7.92857
2022-12-22T11:44:42.329Z,7.64286
2022-12-22T11:45:43.552Z,7.71429
2022-12-22T11:46:42.469Z,7.71429
2022-12-22T11:47:42.432Z,7.14286
2022-12-22T11:48:42.461Z,7.42857
2022-12-22T11:49:42.483Z,7.42857
2022-12-22T11:50:59.175Z,7.64286
2022-12-22T11:51:42.542Z,7
2022-12-22T11:52:42.577Z,6.92857
2022-12-22T11:53:42.608Z,7.64286
2022-12-22T11:54:42.651Z,6.92857
2022-12-22T11:55:42.685Z,6.92857
2022-12-22T11:56:42.728Z,7
2022-12-22T11:57:42.745Z,7.21429
2022-12-22T11:58:42.774Z,7.42857
2022-12-22T11:59:42.840Z,6.92857
2022-12-22T12:01:13.692Z,7.35714
2022-12-22T12:01:42.936Z,7.14286
2022-12-22T12:02:42.998Z,7
2022-12-22T12:03:42.997Z,6.71429
2022-12-22T12:04:42.974Z,6.85714
2022-12-22T12:05:43.013Z,7.14286
2022-12-22T12:06:43.048Z,6.42857
2022-12-22T12:07:43.097Z,6.42857
2022-12-22T12:08:43.113Z,7
2022-12-22T12:09:43.166Z,7.21429
2022-12-22T12:10:43.192Z,6.85714
2022-12-22T12:11:43.222Z,6.92857
2022-12-22T12:12:43.258Z,6.35714
2022-12-22T12:13:43.292Z,6.5
2022-12-22T12:14:43.332Z,6.35714
2022-12-22T12:15:43.441Z,6.64286
2022-12-22T12:16:43.486Z,6.85714
2022-12-22T12:17:43.433Z,6.71429
2022-12-22T12:18:43.456Z,6.85714
2022-12-22T12:19:43.503Z,6.5
2022-12-22T12:20:43.611Z,6.35714
2022-12-22T12:21:43.570Z,6.64286
2022-12-22T12:22:43.596Z,6.64286
2022-12-22T12:23:43.640Z,7.21429
2022-12-22T12:24:43.660Z,6.5
2022-12-22T12:25:43.686Z,5.92857
2022-12-22T12:26:43.712Z,6.35714
2022-12-22T12:27:43.746Z,6.85714